Domov               UVHVVR             MKGP            O straneh              
ZDRAVSTVENO VARSTVO RASTLIN
  MREŽA AGROMET. POSTAJ
 ► PROGNOSTIČNA OBVESTILA
AGROMETEOROLOŠKI PODATKI -
ARSO
OBVLADOVANJE TVEGANJ ZARADI
NEUGODNIH VREMENSKIH RAZMER
  ► NARAVNE NESREČE
  ► SUŠA/MOČA
  ► NAMAKANJE
  ► ŽLED (gozdarstvo)
KARTOGRAFSKI PRIKAZI
SPLETNE POVEZAVE
PROJEKTI IN PUBLIKACIJE

AGROMETEOROLOŠKA MREŽA: VREMENSKE POSTAJE IN FENOLOŠKA OPAZOVANJA

Pregled podatkov za lokacijo Slom, meteorološka postaja 42786

Pregled senzorjev na lokaciji

ID Ime Zadnja
vrednost
Datum
zadnje
spremembe
Tip
senzorja
2126 Temperatura 2 m ( °C) 20,98 °C 28.6.2017 17:00 50YA
2127 Relativna vlaga 2 m (% RH) 88,66 % RH 28.6.2017 17:00 50YA
2128 Omočenost lista (U) 10 U 28.6.2017 17:00 A730WET
2129 Padavine 0.2 mm (mm) 0,2 mm 28.6.2017 17:00 Rain-O-Matic

Pregled podatkov zadnjih 24 ur

Zap.
št.
Datum in čas Slom
Omočenost
lista
Padavine
0.2
mm
Relativna
vlaga
2
m
Temperatura
2
m
0 28.6.2017 16:00 10 0,2 88,66 20,98
1 28.6.2017 15:30 0 0 79,91 21,98
2 28.6.2017 15:00 0 0 72,54 23,43
3 28.6.2017 14:30 0 0 65,24 25,44
4 28.6.2017 14:00 0 0 66,97 24,54
5 28.6.2017 13:30 0 0 66,28 24,48
6 28.6.2017 13:00 0 0 59,03 28,07
7 28.6.2017 12:30 0 0 58,74 27,86
8 28.6.2017 12:00 0 0 57,02 28,35
9 28.6.2017 11:30 0 0 56,98 28,75
10 28.6.2017 11:00 0 0 56,45 28,72
11 28.6.2017 10:30 0 0 57,27 28,06
12 28.6.2017 10:00 0 0 58,2 27,17
13 28.6.2017 09:30 0 0 61,76 26,49
14 28.6.2017 09:00 0 0 69,29 24,77
15 28.6.2017 08:30 0 0 73,37 23,69
16 28.6.2017 08:00 0 0 78,35 22,35
17 28.6.2017 07:30 9 0 82,86 21,1
18 28.6.2017 07:00 10 0 89,96 19,52
19 28.6.2017 06:30 10 0 98,48 17,97
20 28.6.2017 06:00 10 0 100 16,49
21 28.6.2017 05:30 10 0 100 15,34
22 28.6.2017 05:00 10 0 100 14,87
23 28.6.2017 04:30 10 0 100 14,64
24 28.6.2017 04:00 10 0 100 15,03
25 28.6.2017 03:30 10 0 100 14,93
26 28.6.2017 03:00 10 0 100 15,36
27 28.6.2017 02:30 10 0 100 15,27
28 28.6.2017 02:00 10 0 100 15,57
29 28.6.2017 01:30 10 0 100 15,64
30 28.6.2017 01:00 10 0 100 15,67
31 28.6.2017 00:30 10 0 100 15,7
32 28.6.2017 00:00 9 0 100 15,9
33 27.6.2017 23:30 7 0 100 16,14
34 27.6.2017 23:00 5 0 99,98 16,46
35 27.6.2017 22:30 4 0 99,99 16,74
36 27.6.2017 22:00 2 0 99,66 16,98
37 27.6.2017 21:30 1 0 98,88 17,36
38 27.6.2017 21:00 1 0 97,89 17,85
39 27.6.2017 20:30 0 0 96,56 18,62
40 27.6.2017 20:00 0 0 92,94 19,62
41 27.6.2017 19:30 0 0 85,47 21,32
42 27.6.2017 19:00 0 0 79,36 23,34
43 27.6.2017 18:30 0 0 78,05 23,51
44 27.6.2017 18:00 0 0 63,71 24,89
© 2011 Ministrstvo za kmetijstvo, gozdarstvo in prehrano. Vse pravice pridržane.